Time;durP1;ratioP1;P1;durP2;ratioP2;P2;SDS_P1;SDS_P2;PMS_P1;PMS_P2;Temp;Humidity;BMP_temperature;BMP_pressure;BME280_temperature;BME280_humidity;BME280_pressure;Samples;Min_cycle;Max_cycle;Signal;HPM_P1;HPM_P2
2022/08/18 00:01:40;;;;;;;5.57;4.95;;;;;;;;;;5017250;28;20211;-34
2022/08/18 00:04:09;;;;;;;5.17;4.20;;;;;;;;;;5018963;28;20202;-33
2022/08/18 00:06:36;;;;;;;5.65;5.15;;;;;;;;;;5023232;28;20207;-36
2022/08/18 00:09:05;;;;;;;5.93;5.32;;;;;;;;;;5011362;28;20203;-33
2022/08/18 00:11:33;;;;;;;7.10;5.68;;;;;;;;;;5029916;28;20199;-36
2022/08/18 00:14:00;;;;;;;7.03;5.47;;;;;;;;;;5030565;28;20230;-36
2022/08/18 00:16:27;;;;;;;7.18;5.15;;;;;;;;;;5011034;28;20208;-37
2022/08/18 00:18:55;;;;;;;6.38;5.78;;;;;;;;;;5017192;28;20264;-36
2022/08/18 00:21:23;;;;;;;5.47;4.97;;;;;;;;;;5027215;28;20229;-35
2022/08/18 00:23:51;;;;;;;7.53;5.07;;;;;;;;;;5004955;28;20200;-36
2022/08/18 00:26:18;;;;;;;5.22;4.72;;;;;;;;;;5031381;28;20201;-37
2022/08/18 00:28:45;;;;;;;5.57;4.85;;;;;;;;;;5032218;28;20226;-35
2022/08/18 00:31:12;;;;;;;4.90;4.40;;;;;;;;;;5030231;28;20222;-36
2022/08/18 00:33:39;;;;;;;5.32;4.82;;;;;;;;;;5013190;28;20263;-34
2022/08/18 00:36:06;;;;;;;5.50;5.00;;;;;;;;;;5027356;28;20198;-37
2022/08/18 00:38:35;;;;;;;4.80;4.40;;;;;;;;;;5003583;28;20222;-37
2022/08/18 00:41:02;;;;;;;6.10;5.25;;;;;;;;;;5024404;28;20214;-36
2022/08/18 00:43:32;;;;;;;7.22;5.25;;;;;;;;;;5029558;28;20202;-34
2022/08/18 00:45:59;;;;;;;6.25;4.70;;;;;;;;;;4994771;28;20207;-35
2022/08/18 00:48:26;;;;;;;5.40;4.37;;;;;;;;;;5021633;28;20226;-35
2022/08/18 00:50:55;;;;;;;4.90;4.38;;;;;;;;;;5029749;28;20210;-36
2022/08/18 00:53:25;;;;;;;5.47;4.97;;;;;;;;;;5005605;28;20227;-36
2022/08/18 00:55:54;;;;;;;5.50;4.68;;;;;;;;;;5021993;28;20199;-35
2022/08/18 00:58:28;;;;;;;6.00;5.05;;;;;;;;;;5029014;28;20233;-33
2022/08/18 01:00:55;;;;;;;5.83;5.20;;;;;;;;;;5010057;28;20216;-38
2022/08/18 01:03:23;;;;;;;5.60;5.10;;;;;;;;;;4999324;28;20199;-36
2022/08/18 01:05:52;;;;;;;5.93;4.80;;;;;;;;;;5024777;28;20293;-35
2022/08/18 01:08:19;;;;;;;4.77;4.13;;;;;;;;;;5008192;28;20297;-37
2022/08/18 01:10:46;;;;;;;4.77;4.37;;;;;;;;;;5019903;28;20205;-34
2022/08/18 01:13:15;;;;;;;5.77;5.03;;;;;;;;;;5028970;28;20208;-37
2022/08/18 01:15:42;;;;;;;6.50;5.07;;;;;;;;;;5010058;28;20210;-34
2022/08/18 01:23:47;;;;;;;5.70;4.97;;;;;;;;;;5010307;28;20214;-36
2022/08/18 01:26:15;;;;;;;6.17;4.80;;;;;;;;;;5031611;28;20206;-35
2022/08/18 01:28:43;;;;;;;6.33;5.20;;;;;;;;;;5032329;28;20219;-34
2022/08/18 01:31:12;;;;;;;7.30;6.03;;;;;;;;;;5019888;28;20204;-38
2022/08/18 01:33:41;;;;;;;8.33;5.80;;;;;;;;;;5018209;28;20222;-35
2022/08/18 01:36:14;;;;;;;7.87;5.80;;;;;;;;;;5032498;28;20214;-36
2022/08/18 01:38:42;;;;;;;16.13;5.57;;;;;;;;;;5006107;28;20229;-34
2022/08/18 01:41:10;;;;;;;6.75;6.15;;;;;;;;;;5029116;28;20676;-31
2022/08/18 01:43:38;;;;;;;6.80;6.03;;;;;;;;;;5032458;28;20203;-37
2022/08/18 01:46:05;;;;;;;8.13;6.40;;;;;;;;;;5019162;28;20215;-36
2022/08/18 01:48:33;;;;;;;6.90;6.27;;;;;;;;;;5021897;28;20233;-36
2022/08/18 01:51:00;;;;;;;7.03;5.22;;;;;;;;;;5032475;28;20204;-36
2022/08/18 01:53:27;;;;;;;8.05;6.47;;;;;;;;;;5007692;28;20700;-33
2022/08/18 01:55:55;;;;;;;7.40;5.87;;;;;;;;;;5028813;28;20199;-34
2022/08/18 01:58:26;;;;;;;7.27;6.20;;;;;;;;;;5032903;28;20230;-39
2022/08/18 02:00:55;;;;;;;5.77;5.07;;;;;;;;;;5030082;28;20246;-39
2022/08/18 02:03:25;;;;;;;6.50;4.80;;;;;;;;;;4999949;28;20198;-36
2022/08/18 02:05:55;;;;;;;5.50;5.00;;;;;;;;;;5031816;28;20209;-34
2022/08/18 02:08:22;;;;;;;6.47;5.70;;;;;;;;;;5008620;28;20229;-34
2022/08/18 02:10:49;;;;;;;7.63;6.43;;;;;;;;;;5024008;28;20207;-33
2022/08/18 02:13:17;;;;;;;8.73;5.67;;;;;;;;;;5031107;28;20203;-38
2022/08/18 02:15:45;;;;;;;6.40;5.80;;;;;;;;;;5032147;28;20284;-37
2022/08/18 02:18:15;;;;;;;6.35;5.72;;;;;;;;;;5012620;28;20241;-35
2022/08/18 02:20:43;;;;;;;6.07;5.27;;;;;;;;;;5022026;28;20206;-37
2022/08/18 02:23:10;;;;;;;5.77;5.27;;;;;;;;;;5009974;28;20208;-34
2022/08/18 02:25:37;;;;;;;5.57;5.07;;;;;;;;;;5026481;28;20212;-38
2022/08/18 02:28:04;;;;;;;7.17;4.80;;;;;;;;;;5031687;28;20295;-34
2022/08/18 02:30:32;;;;;;;7.00;6.20;;;;;;;;;;5026393;28;20260;-38
2022/08/18 02:33:00;;;;;;;6.32;5.70;;;;;;;;;;5012210;28;20214;-33
2022/08/18 02:35:27;;;;;;;5.80;5.27;;;;;;;;;;5030617;28;20218;-37
2022/08/18 02:37:55;;;;;;;7.07;6.33;;;;;;;;;;5013367;28;20676;-36
2022/08/18 02:40:22;;;;;;;6.53;5.93;;;;;;;;;;5025732;28;20206;-34
2022/08/18 02:42:51;;;;;;;6.80;5.43;;;;;;;;;;5031212;28;20202;-35
2022/08/18 02:45:18;;;;;;;5.43;4.93;;;;;;;;;;5024146;28;20203;-34
2022/08/18 02:47:45;;;;;;;6.43;5.73;;;;;;;;;;4998321;28;20227;-37
2022/08/18 02:50:15;;;;;;;8.23;6.55;;;;;;;;;;5029634;28;20213;-35
2022/08/18 02:52:42;;;;;;;6.77;5.67;;;;;;;;;;5015903;28;20206;-33
2022/08/18 02:55:10;;;;;;;6.03;5.43;;;;;;;;;;5023813;28;20230;-36
2022/08/18 02:57:42;;;;;;;7.00;6.17;;;;;;;;;;5031143;28;20222;-34
2022/08/18 03:00:11;;;;;;;5.97;5.40;;;;;;;;;;5031053;28;20265;-33
2022/08/18 03:02:38;;;;;;;6.73;5.90;;;;;;;;;;5009972;28;20281;-37
2022/08/18 03:05:06;;;;;;;5.50;4.90;;;;;;;;;;5029587;28;20237;-36
2022/08/18 03:07:34;;;;;;;5.87;5.27;;;;;;;;;;5018692;28;20230;-33
2022/08/18 03:10:01;;;;;;;8.00;5.67;;;;;;;;;;5022945;28;20221;-34
2022/08/18 03:12:28;;;;;;;6.53;5.93;;;;;;;;;;5030717;28;20672;-35
2022/08/18 03:14:55;;;;;;;7.37;6.57;;;;;;;;;;5020134;28;20231;-34
2022/08/18 03:17:23;;;;;;;5.13;4.67;;;;;;;;;;5015111;28;20222;-35
2022/08/18 03:19:50;;;;;;;6.63;5.50;;;;;;;;;;5029911;28;20203;-36
2022/08/18 03:22:17;;;;;;;5.33;4.90;;;;;;;;;;5017290;28;20222;-32
2022/08/18 03:24:45;;;;;;;6.40;5.80;;;;;;;;;;5011990;28;20198;-38
2022/08/18 03:27:12;;;;;;;7.10;6.37;;;;;;;;;;5030554;28;20240;-35
2022/08/18 03:29:39;;;;;;;6.70;6.07;;;;;;;;;;5017919;28;20219;-35
2022/08/18 03:32:07;;;;;;;6.73;5.27;;;;;;;;;;5006135;28;20213;-37
2022/08/18 03:34:35;;;;;;;5.50;5.03;;;;;;;;;;5029567;28;20218;-32
2022/08/18 03:37:02;;;;;;;5.90;5.40;;;;;;;;;;5017424;28;20233;-37
2022/08/18 03:39:29;;;;;;;8.20;6.10;;;;;;;;;;5015685;28;20213;-34
2022/08/18 03:41:58;;;;;;;7.70;6.23;;;;;;;;;;5029202;28;20217;-35
2022/08/18 03:44:25;;;;;;;7.87;5.80;;;;;;;;;;5030668;28;20210;-38
2022/08/18 03:46:52;;;;;;;6.80;6.10;;;;;;;;;;5016283;28;20230;-35
2022/08/18 03:49:20;;;;;;;6.63;6.03;;;;;;;;;;5024096;28;20216;-35
2022/08/18 03:51:47;;;;;;;5.87;5.27;;;;;;;;;;5019749;28;20203;-35
2022/08/18 03:54:15;;;;;;;7.55;6.78;;;;;;;;;;5013480;28;20615;-33
2022/08/18 03:56:43;;;;;;;7.83;6.07;;;;;;;;;;5030328;28;20236;-33
2022/08/18 03:59:14;;;;;;;6.00;5.40;;;;;;;;;;5031151;28;20206;-37
2022/08/18 04:01:42;;;;;;;7.63;6.90;;;;;;;;;;5009855;28;20303;-34
2022/08/18 04:04:12;;;;;;;7.30;6.50;;;;;;;;;;5027539;28;20207;-36
2022/08/18 04:06:41;;;;;;;6.53;5.97;;;;;;;;;;5023585;28;20210;-36
2022/08/18 04:09:09;;;;;;;9.30;8.00;;;;;;;;;;5013499;28;20207;-34
2022/08/18 04:11:37;;;;;;;8.93;7.17;;;;;;;;;;5030820;28;20209;-35
2022/08/18 04:14:04;;;;;;;8.93;7.90;;;;;;;;;;5029667;28;20230;-31
2022/08/18 04:16:33;;;;;;;7.83;6.90;;;;;;;;;;5009153;28;20199;-33
2022/08/18 04:19:02;;;;;;;8.57;7.23;;;;;;;;;;5024391;28;20206;-34
2022/08/18 04:21:31;;;;;;;8.07;7.27;;;;;;;;;;5024394;28;20207;-33
2022/08/18 04:24:03;;;;;;;7.87;6.60;;;;;;;;;;5002565;28;20237;-34
2022/08/18 04:26:31;;;;;;;9.63;7.83;;;;;;;;;;5006339;28;20593;-32
2022/08/18 04:28:59;;;;;;;6.87;6.27;;;;;;;;;;5031572;28;20221;-33
2022/08/18 04:31:27;;;;;;;7.10;6.40;;;;;;;;;;5029929;28;20218;-32
2022/08/18 04:33:57;;;;;;;6.57;5.77;;;;;;;;;;5007227;28;20278;-35
2022/08/18 04:36:24;;;;;;;7.33;5.60;;;;;;;;;;5013199;28;20282;-31
2022/08/18 04:38:52;;;;;;;6.10;5.50;;;;;;;;;;5006606;28;20208;-30
2022/08/18 04:43:49;;;;;;;6.37;5.63;;;;;;;;;;4979998;28;20292;-40
2022/08/18 04:46:16;;;;;;;6.30;5.10;;;;;;;;;;4990310;28;20199;-44
2022/08/18 04:48:43;;;;;;;8.90;5.30;;;;;;;;;;4979911;28;20228;-45
2022/08/18 04:51:13;;;;;;;5.50;4.97;;;;;;;;;;4986959;28;20207;-46
2022/08/18 04:53:45;;;;;;;5.30;4.90;;;;;;;;;;4985500;28;20287;-45
2022/08/18 04:56:21;;;;;;;5.97;5.47;;;;;;;;;;4993840;28;20230;-37
2022/08/18 04:58:50;;;;;;;7.10;5.73;;;;;;;;;;4994510;28;20211;-42
2022/08/18 05:01:19;;;;;;;5.77;5.27;;;;;;;;;;4988408;28;20207;-39
2022/08/18 05:03:46;;;;;;;5.60;4.77;;;;;;;;;;4987894;28;20208;-45
2022/08/18 05:06:15;;;;;;;6.67;5.20;;;;;;;;;;4993519;28;20199;-45
2022/08/18 05:08:42;;;;;;;5.50;4.70;;;;;;;;;;4991181;28;20238;-43
2022/08/18 05:11:09;;;;;;;5.23;4.73;;;;;;;;;;4993613;28;20210;-45
2022/08/18 05:13:36;;;;;;;5.83;5.33;;;;;;;;;;4993922;28;20326;-46
2022/08/18 05:16:04;;;;;;;5.87;5.23;;;;;;;;;;4986734;28;20236;-43
2022/08/18 05:18:31;;;;;;;6.73;5.00;;;;;;;;;;4993433;28;20262;-43
2022/08/18 05:21:00;;;;;;;5.60;5.10;;;;;;;;;;4994525;28;20208;-46
2022/08/18 05:23:30;;;;;;;5.20;4.80;;;;;;;;;;4984203;28;20199;-43
2022/08/18 05:25:58;;;;;;;6.00;5.40;;;;;;;;;;4993519;28;20208;-43
2022/08/18 05:28:25;;;;;;;6.33;5.20;;;;;;;;;;4993765;28;20219;-42
2022/08/18 05:30:52;;;;;;;5.33;4.83;;;;;;;;;;4984082;28;20208;-44
2022/08/18 05:33:20;;;;;;;6.77;5.07;;;;;;;;;;4989222;28;20207;-42
2022/08/18 05:35:48;;;;;;;5.73;4.97;;;;;;;;;;4993862;28;20310;-44
2022/08/18 05:38:26;;;;;;;5.37;4.87;;;;;;;;;;4980814;28;20228;-45
2022/08/18 05:41:04;;;;;;;5.80;5.20;;;;;;;;;;4989974;28;20226;-44
2022/08/18 05:43:31;;;;;;;5.27;4.57;;;;;;;;;;4973772;28;20247;-44
2022/08/18 05:46:00;;;;;;;5.90;4.63;;;;;;;;;;4973619;28;20209;-42
2022/08/18 05:48:27;;;;;;;5.67;4.40;;;;;;;;;;4990831;28;20234;-45
2022/08/18 05:50:55;;;;;;;5.50;4.40;;;;;;;;;;4993503;28;20202;-45
2022/08/18 05:56:45;;;;;;;5.07;4.57;;;;;;;;;;4981416;28;20649;-42
2022/08/18 05:59:03;;;;;;;5.47;4.67;;;;;;;;;;4992612;28;20293;-43
2022/08/18 06:01:33;;;;;;;4.47;4.07;;;;;;;;;;4982101;28;20200;-43
2022/08/18 06:04:03;;;;;;;4.93;4.37;;;;;;;;;;4983765;28;20204;-44
2022/08/18 06:06:31;;;;;;;6.88;4.50;;;;;;;;;;4988594;28;20203;-40
2022/08/18 06:09:02;;;;;;;4.13;3.77;;;;;;;;;;4979675;28;20224;-43
2022/08/18 06:11:31;;;;;;;4.93;4.03;;;;;;;;;;4992546;28;20207;-45
2022/08/18 06:14:00;;;;;;;6.03;4.23;;;;;;;;;;4992698;28;20215;-43
2022/08/18 06:16:33;;;;;;;6.13;4.27;;;;;;;;;;4986416;28;20728;-39
2022/08/18 06:19:02;;;;;;;4.83;4.33;;;;;;;;;;4985984;28;20204;-43
2022/08/18 06:21:33;;;;;;;4.43;4.03;;;;;;;;;;4989213;28;20497;-43
2022/08/18 06:24:07;;;;;;;4.18;3.75;;;;;;;;;;4984144;28;20212;-47
2022/08/18 06:26:40;;;;;;;4.00;3.70;;;;;;;;;;4992573;28;20317;-39
2022/08/18 06:29:14;;;;;;;4.50;4.10;;;;;;;;;;4992810;28;20210;-43
2022/08/18 06:31:45;;;;;;;5.07;4.68;;;;;;;;;;4981584;28;20204;-45
2022/08/18 06:34:18;;;;;;;5.40;4.87;;;;;;;;;;4992325;28;20211;-44
2022/08/18 06:36:50;;;;;;;5.25;4.75;;;;;;;;;;4986828;28;20228;-39
2022/08/18 06:39:21;;;;;;;6.95;4.20;;;;;;;;;;4992133;28;20204;-46
2022/08/18 06:41:52;;;;;;;5.03;4.53;;;;;;;;;;4985859;28;20221;-44
2022/08/18 06:44:21;;;;;;;8.30;4.25;;;;;;;;;;4972907;28;20212;-43
2022/08/18 06:46:50;;;;;;;4.57;4.13;;;;;;;;;;4978044;28;20236;-43
2022/08/18 06:49:22;;;;;;;4.57;4.10;;;;;;;;;;4993130;28;20204;-44
2022/08/18 06:51:49;;;;;;;5.03;4.50;;;;;;;;;;4987984;28;20210;-43
2022/08/18 06:54:28;;;;;;;5.22;4.75;;;;;;;;;;4986844;28;20209;-42
2022/08/18 06:56:57;;;;;;;6.90;5.28;;;;;;;;;;4992209;28;20306;-42
2022/08/18 06:59:26;;;;;;;5.97;5.20;;;;;;;;;;4992682;28;20211;-43
2022/08/18 07:01:54;;;;;;;5.63;5.07;;;;;;;;;;4984510;28;20208;-42
2022/08/18 07:04:32;;;;;;;5.30;4.77;;;;;;;;;;4973503;28;20760;-43
2022/08/18 07:06:59;;;;;;;5.00;4.50;;;;;;;;;;4983429;28;20224;-45
2022/08/18 07:09:33;;;;;;;6.68;4.35;;;;;;;;;;4988975;28;20200;-41
2022/08/18 07:12:06;;;;;;;5.03;4.53;;;;;;;;;;4984381;28;20224;-43
2022/08/18 07:14:44;;;;;;;5.30;4.77;;;;;;;;;;4981972;28;20204;-44
2022/08/18 07:17:13;;;;;;;7.30;5.95;;;;;;;;;;4985530;28;20231;-39
2022/08/18 07:19:41;;;;;;;5.72;5.22;;;;;;;;;;4988639;28;20207;-47
2022/08/18 07:22:10;;;;;;;7.68;5.15;;;;;;;;;;4981681;28;20211;-42
2022/08/18 07:24:40;;;;;;;6.60;5.00;;;;;;;;;;4989763;28;20295;-42
2022/08/18 07:27:09;;;;;;;4.78;4.38;;;;;;;;;;4986440;28;20232;-45
2022/08/18 07:29:37;;;;;;;5.78;4.60;;;;;;;;;;4981592;28;20207;-44
2022/08/18 07:32:07;;;;;;;7.38;5.10;;;;;;;;;;4978346;28;20212;-42
2022/08/18 07:34:37;;;;;;;5.45;5.00;;;;;;;;;;4984766;28;20266;-37
2022/08/18 07:37:06;;;;;;;5.45;4.90;;;;;;;;;;4982608;28;20256;-40
2022/08/18 07:39:38;;;;;;;6.15;4.90;;;;;;;;;;4981929;28;20267;-45
2022/08/18 07:42:09;;;;;;;5.68;5.05;;;;;;;;;;4983569;28;20267;-44
2022/08/18 07:44:43;;;;;;;5.43;4.53;;;;;;;;;;4991294;28;20611;-37
2022/08/18 07:47:14;;;;;;;5.40;4.90;;;;;;;;;;4986418;28;20711;-45
2022/08/18 07:49:43;;;;;;;6.23;5.07;;;;;;;;;;4989575;28;20299;-42
2022/08/18 07:52:14;;;;;;;7.47;5.70;;;;;;;;;;4983950;28;20212;-42
2022/08/18 07:54:47;;;;;;;6.40;5.73;;;;;;;;;;4985511;28;20199;-45
2022/08/18 07:57:18;;;;;;;8.97;6.47;;;;;;;;;;4991776;28;20309;-41
2022/08/18 07:59:52;;;;;;;8.20;5.27;;;;;;;;;;4991757;28;20248;-45
2022/08/18 08:02:28;;;;;;;6.53;5.43;;;;;;;;;;4980215;28;20235;-45
2022/08/18 08:05:00;;;;;;;8.73;5.50;;;;;;;;;;4986946;28;20430;-42
2022/08/18 08:07:29;;;;;;;5.83;5.23;;;;;;;;;;4986790;28;20251;-39
2022/08/18 08:10:02;;;;;;;6.23;5.63;;;;;;;;;;4991973;28;20243;-43
2022/08/18 08:12:35;;;;;;;6.50;5.63;;;;;;;;;;4990779;28;20204;-44
2022/08/18 08:15:09;;;;;;;6.53;5.43;;;;;;;;;;4989252;28;20204;-42
2022/08/18 08:17:45;;;;;;;7.20;6.10;;;;;;;;;;4973056;28;20225;-44
2022/08/18 08:20:19;;;;;;;6.93;5.57;;;;;;;;;;4990427;28;20266;-41
2022/08/18 08:22:53;;;;;;;5.03;4.40;;;;;;;;;;4982781;28;20642;-46
2022/08/18 08:25:24;;;;;;;5.93;5.10;;;;;;;;;;4983270;28;20207;-42
2022/08/18 08:27:59;;;;;;;6.30;5.00;;;;;;;;;;4975868;28;20302;-44
2022/08/18 08:30:29;;;;;;;6.20;4.90;;;;;;;;;;4976214;28;20420;-44
2022/08/18 08:33:02;;;;;;;5.00;4.57;;;;;;;;;;4985770;28;20207;-44
2022/08/18 08:35:34;;;;;;;7.13;4.23;;;;;;;;;;4977588;28;20215;-43
2022/08/18 08:38:03;;;;;;;5.53;4.83;;;;;;;;;;4978443;28;20231;-42
2022/08/18 08:40:36;;;;;;;5.73;5.17;;;;;;;;;;4989953;28;20214;-40
2022/08/18 08:43:05;;;;;;;6.17;5.33;;;;;;;;;;4984499;28;20227;-46
2022/08/18 08:45:35;;;;;;;7.13;5.10;;;;;;;;;;4981343;28;20200;-45
2022/08/18 08:48:05;;;;;;;6.13;5.47;;;;;;;;;;4978237;28;20235;-42
2022/08/18 08:50:36;;;;;;;5.27;4.77;;;;;;;;;;4983451;28;20208;-46
2022/08/18 08:53:06;;;;;;;8.73;5.47;;;;;;;;;;4982183;28;20211;-42
2022/08/18 08:55:36;;;;;;;6.73;5.30;;;;;;;;;;4981421;28;20218;-45
2022/08/18 08:58:10;;;;;;;6.53;4.60;;;;;;;;;;4979568;28;20534;-41
2022/08/18 09:00:39;;;;;;;4.85;4.45;;;;;;;;;;4977744;28;20224;-43
2022/08/18 09:03:14;;;;;;;5.03;4.53;;;;;;;;;;4987416;28;20212;-43
2022/08/18 09:05:44;;;;;;;5.60;5.10;;;;;;;;;;4982353;28;20203;-39
2022/08/18 09:08:22;;;;;;;5.70;5.20;;;;;;;;;;4980529;28;20231;-41
2022/08/18 09:11:04;;;;;;;5.43;4.93;;;;;;;;;;4984214;28;20273;-42
2022/08/18 09:13:46;;;;;;;4.95;4.45;;;;;;;;;;4978709;28;20215;-35
2022/08/18 09:16:22;;;;;;;5.75;4.63;;;;;;;;;;4937091;28;20230;-38
2022/08/18 09:18:56;;;;;;;5.63;5.00;;;;;;;;;;4984542;28;20219;-38
2022/08/18 09:21:29;;;;;;;5.35;4.47;;;;;;;;;;4980427;28;20214;-44
2022/08/18 09:24:05;;;;;;;5.68;4.65;;;;;;;;;;4984673;28;20220;-41
2022/08/18 09:26:40;;;;;;;5.28;4.65;;;;;;;;;;4982749;28;20292;-39
2022/08/18 09:29:16;;;;;;;6.20;4.88;;;;;;;;;;4981697;28;20207;-42
2022/08/18 09:31:47;;;;;;;6.32;4.75;;;;;;;;;;4975457;28;20221;-46
2022/08/18 09:34:31;;;;;;;4.80;4.40;;;;;;;;;;4981207;28;20615;-42
2022/08/18 09:37:05;;;;;;;6.03;5.43;;;;;;;;;;4978650;28;20613;-41
2022/08/18 09:42:27;;;;;;;5.95;5.35;;;;;;;;;;4988406;28;20212;-43
2022/08/18 09:45:00;;;;;;;6.88;6.18;;;;;;;;;;4985514;28;20231;-45
2022/08/18 09:47:46;;;;;;;5.18;4.68;;;;;;;;;;4989382;28;20223;-43
2022/08/18 09:50:31;;;;;;;6.03;5.43;;;;;;;;;;4988679;28;20230;-44
2022/08/18 09:53:18;;;;;;;5.53;5.00;;;;;;;;;;4987215;28;20211;-41
2022/08/18 09:56:03;;;;;;;6.00;5.50;;;;;;;;;;4987549;28;20294;-38
2022/08/18 09:58:51;;;;;;;7.18;5.72;;;;;;;;;;4983833;28;20226;-40
2022/08/18 10:01:36;;;;;;;6.03;5.43;;;;;;;;;;4995208;28;20203;-45
2022/08/18 10:04:23;;;;;;;5.78;4.80;;;;;;;;;;4981888;28;20204;-40
2022/08/18 10:06:50;;;;;;;6.05;5.53;;;;;;;;;;4977550;28;20235;-38
2022/08/18 10:09:26;;;;;;;6.32;5.45;;;;;;;;;;4989017;28;20210;-45
2022/08/18 10:11:59;;;;;;;6.05;5.43;;;;;;;;;;4993569;28;20199;-40
2022/08/18 10:14:33;;;;;;;7.13;6.43;;;;;;;;;;4993886;28;20254;-46
2022/08/18 10:17:06;;;;;;;6.60;5.85;;;;;;;;;;4986683;28;20316;-42
2022/08/18 10:19:35;;;;;;;7.55;6.60;;;;;;;;;;4976484;28;20248;-44
2022/08/18 10:22:06;;;;;;;7.70;6.07;;;;;;;;;;4989915;28;20202;-41
2022/08/18 10:24:36;;;;;;;7.38;6.10;;;;;;;;;;4993782;28;20292;-45
2022/08/18 10:27:04;;;;;;;7.75;6.45;;;;;;;;;;4993376;28;20216;-41
2022/08/18 10:29:45;;;;;;;6.60;6.00;;;;;;;;;;4990041;28;20209;-42
2022/08/18 10:32:43;;;;;;;7.93;7.00;;;;;;;;;;4987011;28;20227;-40
2022/08/18 10:35:40;;;;;;;7.20;6.47;;;;;;;;;;4982190;28;20202;-40
2022/08/18 10:38:12;;;;;;;7.75;7.00;;;;;;;;;;4916743;29;20238;-42
2022/08/18 10:40:42;;;;;;;7.28;6.57;;;;;;;;;;4976254;28;20236;-44
2022/08/18 10:43:10;;;;;;;10.00;7.22;;;;;;;;;;4991187;28;20216;-44
2022/08/18 10:45:38;;;;;;;7.43;6.68;;;;;;;;;;4982549;28;20247;-38
2022/08/18 10:48:08;;;;;;;8.23;7.40;;;;;;;;;;4984436;28;20236;-41
2022/08/18 10:50:40;;;;;;;8.63;7.80;;;;;;;;;;4984731;28;20202;-44
2022/08/18 10:53:11;;;;;;;7.80;7.05;;;;;;;;;;4984517;28;20212;-45
2022/08/18 10:55:47;;;;;;;8.20;7.40;;;;;;;;;;4993713;28;20215;-41
2022/08/18 10:58:35;;;;;;;8.00;7.28;;;;;;;;;;4983730;28;20250;-45
2022/08/18 11:01:16;;;;;;;11.35;7.80;;;;;;;;;;4980564;28;20287;-45
2022/08/18 11:03:53;;;;;;;7.45;6.85;;;;;;;;;;4986641;28;20211;-44
2022/08/18 11:06:23;;;;;;;7.55;6.85;;;;;;;;;;4978726;28;20197;-42
2022/08/18 11:08:51;;;;;;;9.85;8.40;;;;;;;;;;5090327;22;20277;-35
2022/08/18 11:11:23;;;;;;;7.60;6.88;;;;;;;;;;5032744;28;20298;-31
2022/08/18 11:13:54;;;;;;;8.30;7.50;;;;;;;;;;5033245;28;20204;-30
2022/08/18 11:16:28;;;;;;;6.45;5.90;;;;;;;;;;5025179;28;20202;-33
2022/08/18 11:18:58;;;;;;;6.65;6.05;;;;;;;;;;5014017;28;20203;-31
2022/08/18 11:21:35;;;;;;;6.45;5.93;;;;;;;;;;5029040;28;20668;-33
2022/08/18 11:24:03;;;;;;;6.78;6.15;;;;;;;;;;5011005;28;20663;-34
2022/08/18 11:26:33;;;;;;;6.90;6.25;;;;;;;;;;5017804;28;20200;-31
2022/08/18 11:29:01;;;;;;;7.25;6.05;;;;;;;;;;5033541;28;20227;-33
2022/08/18 11:31:28;;;;;;;6.47;5.93;;;;;;;;;;5004059;28;20223;-32
2022/08/18 11:33:55;;;;;;;7.68;6.40;;;;;;;;;;5019928;28;20216;-33
2022/08/18 11:36:30;;;;;;;7.43;6.25;;;;;;;;;;5029569;28;20266;-34
2022/08/18 11:38:58;;;;;;;6.38;5.78;;;;;;;;;;5008886;28;20388;-32
2022/08/18 11:41:27;;;;;;;7.60;5.50;;;;;;;;;;5024486;28;20205;-34
2022/08/18 11:43:58;;;;;;;6.72;6.03;;;;;;;;;;5032710;28;20208;-33
2022/08/18 11:46:28;;;;;;;7.10;6.20;;;;;;;;;;5008484;28;20500;-34
2022/08/18 11:48:55;;;;;;;5.68;5.18;;;;;;;;;;5007005;28;20643;-33
2022/08/18 11:51:24;;;;;;;8.80;6.82;;;;;;;;;;5006830;28;20296;-31
2022/08/18 11:53:53;;;;;;;6.70;5.78;;;;;;;;;;5014738;28;20203;-31
2022/08/18 11:56:24;;;;;;;6.18;5.57;;;;;;;;;;5021424;28;20204;-31
2022/08/18 11:58:53;;;;;;;6.55;5.93;;;;;;;;;;4997734;28;20722;-32
2022/08/18 12:01:37;;;;;;;6.50;5.90;;;;;;;;;;4998246;28;20380;-31
2022/08/18 12:04:10;;;;;;;7.15;6.13;;;;;;;;;;4998495;28;20237;-35
2022/08/18 12:06:38;;;;;;;7.13;6.03;;;;;;;;;;5004547;28;21833;-31
2022/08/18 12:09:06;;;;;;;7.90;6.65;;;;;;;;;;5010128;28;20296;-32
2022/08/18 12:11:37;;;;;;;8.65;6.28;;;;;;;;;;5012270;28;20625;-31
2022/08/18 12:14:06;;;;;;;8.15;6.18;;;;;;;;;;4998617;28;20202;-33
2022/08/18 12:16:37;;;;;;;6.35;5.75;;;;;;;;;;4998306;28;20651;-32
2022/08/18 12:19:04;;;;;;;6.60;6.00;;;;;;;;;;4997444;28;20549;-32
2022/08/18 12:21:32;;;;;;;6.43;5.85;;;;;;;;;;5007742;28;20263;-29
2022/08/18 12:23:59;;;;;;;6.22;5.65;;;;;;;;;;4999896;28;20219;-34
2022/08/18 12:26:26;;;;;;;6.90;6.30;;;;;;;;;;5009183;28;20275;-33
2022/08/18 12:28:53;;;;;;;10.77;6.43;;;;;;;;;;4995033;28;20206;-33
2022/08/18 12:31:20;;;;;;;6.65;6.00;;;;;;;;;;5002481;28;20215;-34
2022/08/18 12:33:52;;;;;;;6.20;5.60;;;;;;;;;;5007846;28;20229;-31
2022/08/18 12:36:23;;;;;;;9.00;6.78;;;;;;;;;;5025658;28;20229;-34
2022/08/18 12:38:50;;;;;;;7.30;6.30;;;;;;;;;;5006386;28;20227;-31
2022/08/18 12:41:17;;;;;;;6.13;5.60;;;;;;;;;;5029302;28;20212;-30
2022/08/18 12:43:46;;;;;;;7.07;6.00;;;;;;;;;;5030305;28;20220;-33
2022/08/18 12:46:13;;;;;;;6.88;6.15;;;;;;;;;;5006769;28;20224;-31
2022/08/18 12:48:40;;;;;;;7.97;7.25;;;;;;;;;;5017991;28;20211;-30
2022/08/18 12:51:08;;;;;;;6.40;5.80;;;;;;;;;;5032030;28;20204;-31
2022/08/18 12:53:36;;;;;;;7.50;6.10;;;;;;;;;;5007819;28;20535;-31
2022/08/18 12:56:04;;;;;;;6.22;5.70;;;;;;;;;;5026039;28;20204;-30
2022/08/18 12:58:31;;;;;;;6.40;5.80;;;;;;;;;;5011876;28;20230;-31
2022/08/18 13:00:58;;;;;;;5.95;5.45;;;;;;;;;;5005529;28;20297;-33
2022/08/18 13:03:25;;;;;;;6.30;5.70;;;;;;;;;;5013973;28;20204;-33
2022/08/18 13:05:52;;;;;;;6.25;5.65;;;;;;;;;;5018041;28;20550;-32
2022/08/18 13:08:21;;;;;;;6.15;5.65;;;;;;;;;;4998594;28;20229;-31
2022/08/18 13:10:50;;;;;;;5.80;5.30;;;;;;;;;;5012509;28;20230;-32
2022/08/18 13:13:18;;;;;;;6.75;5.95;;;;;;;;;;5015769;28;20206;-31
2022/08/18 13:15:45;;;;;;;6.30;5.75;;;;;;;;;;5008978;28;20658;-32
2022/08/18 13:18:13;;;;;;;5.57;5.07;;;;;;;;;;5011476;28;20680;-31
2022/08/18 13:20:40;;;;;;;6.38;5.88;;;;;;;;;;5009744;28;20264;-31
2022/08/18 13:23:07;;;;;;;7.60;5.00;;;;;;;;;;5008735;28;20206;-32
2022/08/18 13:25:35;;;;;;;7.07;5.13;;;;;;;;;;5012391;28;20221;-33
2022/08/18 13:28:04;;;;;;;5.72;5.22;;;;;;;;;;5010440;28;20218;-33
2022/08/18 13:30:31;;;;;;;6.28;5.57;;;;;;;;;;5012287;28;20211;-32
2022/08/18 13:32:59;;;;;;;6.25;5.68;;;;;;;;;;5004762;28;20298;-31
2022/08/18 13:35:26;;;;;;;5.72;5.13;;;;;;;;;;5019037;28;20566;-33
2022/08/18 13:37:55;;;;;;;6.22;5.72;;;;;;;;;;5006893;28;20236;-30
2022/08/18 13:40:22;;;;;;;5.70;5.20;;;;;;;;;;5014974;28;20237;-31
2022/08/18 13:42:52;;;;;;;7.35;6.03;;;;;;;;;;5018894;28;20214;-33
2022/08/18 13:45:21;;;;;;;6.65;5.75;;;;;;;;;;5011945;28;20225;-33
2022/08/18 13:47:49;;;;;;;7.80;5.60;;;;;;;;;;5005284;28;20247;-29
2022/08/18 13:50:16;;;;;;;8.07;5.47;;;;;;;;;;5025582;28;20569;-33
2022/08/18 13:52:44;;;;;;;5.07;4.70;;;;;;;;;;5015613;28;20209;-30
2022/08/18 13:55:13;;;;;;;5.72;5.22;;;;;;;;;;5010935;28;20208;-35
2022/08/18 13:57:46;;;;;;;5.45;4.97;;;;;;;;;;5013501;28;20233;-31
2022/08/18 14:00:15;;;;;;;5.95;5.45;;;;;;;;;;5014724;28;20590;-30
2022/08/18 14:02:43;;;;;;;6.43;5.82;;;;;;;;;;5011281;28;20556;-30
2022/08/18 14:05:10;;;;;;;6.00;5.50;;;;;;;;;;5024948;28;20200;-31
2022/08/18 14:07:37;;;;;;;6.13;5.57;;;;;;;;;;5008641;28;20232;-32
2022/08/18 14:10:05;;;;;;;5.85;5.35;;;;;;;;;;5012817;28;20237;-31
2022/08/18 14:12:34;;;;;;;6.10;5.53;;;;;;;;;;5011491;28;20229;-31
2022/08/18 14:15:01;;;;;;;5.65;4.90;;;;;;;;;;5001431;28;20218;-33
2022/08/18 14:17:28;;;;;;;5.60;5.15;;;;;;;;;;5013771;28;20228;-28
2022/08/18 14:28:11;;;;;;;6.40;5.20;;;;;;;;;;5014369;28;20232;-29
2022/08/18 14:30:38;;;;;;;6.15;5.55;;;;;;;;;;5014900;28;20573;-29
2022/08/18 14:33:06;;;;;;;5.78;5.22;;;;;;;;;;5011499;28;20221;-31
2022/08/18 14:35:35;;;;;;;6.25;5.72;;;;;;;;;;5019886;28;20204;-32
2022/08/18 14:38:03;;;;;;;6.13;5.53;;;;;;;;;;5016292;28;20242;-33
2022/08/18 14:40:32;;;;;;;6.20;5.65;;;;;;;;;;5014825;28;20206;-34
2022/08/18 14:42:59;;;;;;;6.28;5.78;;;;;;;;;;5032333;28;20274;-29
2022/08/18 14:45:27;;;;;;;5.93;5.38;;;;;;;;;;5021855;28;20210;-31
2022/08/18 14:47:55;;;;;;;8.73;5.20;;;;;;;;;;5023460;28;20224;-33
2022/08/18 14:50:22;;;;;;;5.45;4.95;;;;;;;;;;5006404;28;20209;-30
2022/08/18 14:52:51;;;;;;;6.30;5.70;;;;;;;;;;5004389;28;20213;-31
2022/08/18 14:55:18;;;;;;;5.63;5.22;;;;;;;;;;5019983;28;20201;-34
2022/08/18 14:57:46;;;;;;;6.05;4.88;;;;;;;;;;5017901;28;20228;-31
2022/08/18 15:00:14;;;;;;;5.47;4.97;;;;;;;;;;5011692;28;20214;-32
2022/08/18 15:02:42;;;;;;;5.72;5.07;;;;;;;;;;5003908;28;20205;-32
2022/08/18 15:05:10;;;;;;;6.90;5.50;;;;;;;;;;5021096;28;20820;-29
2022/08/18 15:07:38;;;;;;;6.80;5.07;;;;;;;;;;5013680;28;20227;-29
2022/08/18 15:10:07;;;;;;;6.75;5.70;;;;;;;;;;5025875;28;20223;-31
2022/08/18 15:12:34;;;;;;;6.20;5.70;;;;;;;;;;5027586;28;20217;-32
2022/08/18 15:15:01;;;;;;;6.07;5.47;;;;;;;;;;5029429;28;20240;-30
2022/08/18 15:17:28;;;;;;;6.95;5.15;;;;;;;;;;5009128;28;20584;-29
2022/08/18 15:19:55;;;;;;;8.15;5.90;;;;;;;;;;5021478;28;20210;-32
2022/08/18 15:28:06;;;;;;;9.27;6.07;;;;;;;;;;4943929;28;20218;-31